Strona główna
METAR-TAF:

METAR-TAF

Lotnisko :

Port lotniczy Phú Quốc

Phú Quốc, Wietnam

Szerokość geograficzna: 10-10-18N, Długość geograficzna: 103-59-28E, wysokość: 11 m

Aktualna obserwacja pogody

Raport powstał 28 minut temu, godzina 06:00 UTC
Wiatr 14 kt od wschód, zmienny między północny wschód i wschodnio-południowy wschód
Temperatura 32°C
Wilgotność 41%
Ciśnienie 1014 hPa
Widzialność 10 km lub więcej
Brak chmur poniżej 1500 m i brak chmur cumulonimbus

METAR: VVPQ 220600Z 08014KT 040V110 CAVOK 32/17 Q1014 NOSIG

czas: 13:28 (06:28 UTC)

Prognoza

Raport powstał 1 godzina i 28 minut temu, godzina 05:00 UTC
Prognoza ważna od 22 godzina 06 UTC do 23 godzina 06 UTC
Wiatr 12 kt od wschodnio-północny wschód
Widzialność 10 km lub więcej
Rozproszone chmury na wysokości 1700 ft

TAF: VVPQ 220500Z 2206/2306 07012KT 9999 SCT017

Obserwacja i prognoza pogody dla ponad 4000 lotnisk (raport METAR i TAF).

Dostępne stacje oznaczono żółtymi i czerwonymi punktami na mapie.

Najedź kursorem aby zobaczyć nazwę stacji.

Kliknij aby zobaczyć obserwacje i prognozy pogody.

Aby zmienić mapę: kliknij na zielony przycisk z czarnym krzyżykiem, aby powiększyć; na zielony przycisk z myślnikiem, aby pomniejszyć; na zielone strzałki, aby przejść do map sąsiednich.


METAR-TAF: